sensor_id;sensor_type;location;lat;lon;timestamp;temperature;humidity
59881;DHT22;45751;51.380;10.326;2023-02-28T00:01:25;-0.20;76.80
59881;DHT22;45751;51.380;10.326;2023-02-28T00:03:52;-0.10;76.80
59881;DHT22;45751;51.380;10.326;2023-02-28T00:06:19;-0.10;76.70
59881;DHT22;45751;51.380;10.326;2023-02-28T00:08:47;-0.10;76.90
59881;DHT22;45751;51.380;10.326;2023-02-28T00:11:15;-0.10;76.90
59881;DHT22;45751;51.380;10.326;2023-02-28T00:13:45;-0.10;77.10
59881;DHT22;45751;51.380;10.326;2023-02-28T00:16:18;-0.10;78.30
59881;DHT22;45751;51.380;10.326;2023-02-28T00:18:45;0.00;77.20
59881;DHT22;45751;51.380;10.326;2023-02-28T00:21:14;-0.10;77.20
59881;DHT22;45751;51.380;10.326;2023-02-28T00:23:41;0.00;77.00
59881;DHT22;45751;51.380;10.326;2023-02-28T00:26:08;0.00;76.70
59881;DHT22;45751;51.380;10.326;2023-02-28T00:28:36;0.00;76.70
59881;DHT22;45751;51.380;10.326;2023-02-28T00:31:03;0.00;76.60
59881;DHT22;45751;51.380;10.326;2023-02-28T00:33:30;0.00;76.60
59881;DHT22;45751;51.380;10.326;2023-02-28T00:36:08;0.00;76.60
59881;DHT22;45751;51.380;10.326;2023-02-28T00:38:37;0.00;76.50
59881;DHT22;45751;51.380;10.326;2023-02-28T00:41:05;0.00;76.50
59881;DHT22;45751;51.380;10.326;2023-02-28T00:43:33;0.00;76.50
59881;DHT22;45751;51.380;10.326;2023-02-28T00:46:00;0.00;76.50
59881;DHT22;45751;51.380;10.326;2023-02-28T00:48:29;0.00;76.50
59881;DHT22;45751;51.380;10.326;2023-02-28T00:50:56;0.00;76.60
59881;DHT22;45751;51.380;10.326;2023-02-28T00:53:24;0.00;76.70
59881;DHT22;45751;51.380;10.326;2023-02-28T00:55:51;0.00;76.70
59881;DHT22;45751;51.380;10.326;2023-02-28T00:58:18;0.00;76.70
59881;DHT22;45751;51.380;10.326;2023-02-28T01:00:45;0.00;76.70
59881;DHT22;45751;51.380;10.326;2023-02-28T01:03:19;0.00;76.40
59881;DHT22;45751;51.380;10.326;2023-02-28T01:05:46;0.00;76.10
59881;DHT22;45751;51.380;10.326;2023-02-28T01:08:16;0.00;75.70
59881;DHT22;45751;51.380;10.326;2023-02-28T01:10:43;0.00;75.30
59881;DHT22;45751;51.380;10.326;2023-02-28T01:13:10;0.00;75.30
59881;DHT22;45751;51.380;10.326;2023-02-28T01:15:39;0.00;75.10
59881;DHT22;45751;51.380;10.326;2023-02-28T01:18:08;0.00;74.90
59881;DHT22;45751;51.380;10.326;2023-02-28T01:20:37;0.00;75.00
59881;DHT22;45751;51.380;10.326;2023-02-28T01:23:03;0.00;74.80
59881;DHT22;45751;51.380;10.326;2023-02-28T01:25:30;0.00;74.90
59881;DHT22;45751;51.380;10.326;2023-02-28T01:27:57;0.00;74.70
59881;DHT22;45751;51.380;10.326;2023-02-28T01:30:26;0.00;74.60
59881;DHT22;45751;51.380;10.326;2023-02-28T01:32:53;0.10;74.50
59881;DHT22;45751;51.380;10.326;2023-02-28T01:35:20;0.00;74.60
59881;DHT22;45751;51.380;10.326;2023-02-28T01:37:47;0.10;74.80
59881;DHT22;45751;51.380;10.326;2023-02-28T01:40:14;0.10;74.70
59881;DHT22;45751;51.380;10.326;2023-02-28T01:42:41;0.10;74.30
59881;DHT22;45751;51.380;10.326;2023-02-28T01:47:50;0.10;74.20
59881;DHT22;45751;51.380;10.326;2023-02-28T01:50:20;0.10;74.20
59881;DHT22;45751;51.380;10.326;2023-02-28T01:52:48;0.10;74.20
59881;DHT22;45751;51.380;10.326;2023-02-28T01:55:17;0.10;74.20
59881;DHT22;45751;51.380;10.326;2023-02-28T01:57:50;0.10;74.20
59881;DHT22;45751;51.380;10.326;2023-02-28T02:00:22;0.10;74.20
59881;DHT22;45751;51.380;10.326;2023-02-28T02:02:54;0.10;74.20
59881;DHT22;45751;51.380;10.326;2023-02-28T02:05:24;0.10;74.20
59881;DHT22;45751;51.380;10.326;2023-02-28T02:07:55;0.10;73.90
59881;DHT22;45751;51.380;10.326;2023-02-28T02:13:24;0.10;73.30
59881;DHT22;45751;51.380;10.326;2023-02-28T02:27:39;0.10;73.00
59881;DHT22;45751;51.380;10.326;2023-02-28T02:36:39;0.00;73.20
59881;DHT22;45751;51.380;10.326;2023-02-28T02:39:39;0.00;73.10
59881;DHT22;45751;51.380;10.326;2023-02-28T02:42:15;0.00;73.10
59881;DHT22;45751;51.380;10.326;2023-02-28T02:44:47;0.00;73.10
59881;DHT22;45751;51.380;10.326;2023-02-28T02:47:18;0.00;73.00
59881;DHT22;45751;51.380;10.326;2023-02-28T02:49:50;0.00;73.00
59881;DHT22;45751;51.380;10.326;2023-02-28T02:52:22;0.00;73.00
59881;DHT22;45751;51.380;10.326;2023-02-28T02:54:52;0.00;73.20
59881;DHT22;45751;51.380;10.326;2023-02-28T02:57:38;0.00;73.20
59881;DHT22;45751;51.380;10.326;2023-02-28T03:00:08;-0.10;73.20
59881;DHT22;45751;51.380;10.326;2023-02-28T03:02:37;-0.10;73.40
59881;DHT22;45751;51.380;10.326;2023-02-28T03:05:09;-0.10;73.70
59881;DHT22;45751;51.380;10.326;2023-02-28T03:07:39;-0.10;73.80
59881;DHT22;45751;51.380;10.326;2023-02-28T03:10:26;-0.10;74.10
59881;DHT22;45751;51.380;10.326;2023-02-28T03:13:05;-0.10;74.10
59881;DHT22;45751;51.380;10.326;2023-02-28T03:15:43;-0.10;74.20
59881;DHT22;45751;51.380;10.326;2023-02-28T03:18:36;-0.10;74.10
59881;DHT22;45751;51.380;10.326;2023-02-28T03:26:26;-0.20;74.80
59881;DHT22;45751;51.380;10.326;2023-02-28T03:31:52;-0.20;75.00
59881;DHT22;45751;51.380;10.326;2023-02-28T03:34:31;-0.20;75.00
59881;DHT22;45751;51.380;10.326;2023-02-28T03:37:03;-0.20;75.20
59881;DHT22;45751;51.380;10.326;2023-02-28T03:39:41;-0.20;75.30
59881;DHT22;45751;51.380;10.326;2023-02-28T03:42:15;-0.20;75.30
59881;DHT22;45751;51.380;10.326;2023-02-28T03:45:22;-0.20;75.40
59881;DHT22;45751;51.380;10.326;2023-02-28T03:47:57;-0.20;75.40
59881;DHT22;45751;51.380;10.326;2023-02-28T03:53:15;-0.20;75.40
59881;DHT22;45751;51.380;10.326;2023-02-28T03:55:49;-0.20;75.40
59881;DHT22;45751;51.380;10.326;2023-02-28T03:58:27;-0.20;75.40
59881;DHT22;45751;51.380;10.326;2023-02-28T04:01:04;-0.20;75.40
59881;DHT22;45751;51.380;10.326;2023-02-28T04:03:36;-0.20;75.50
59881;DHT22;45751;51.380;10.326;2023-02-28T04:06:04;-0.20;76.10
59881;DHT22;45751;51.380;10.326;2023-02-28T04:08:32;-0.10;76.50
59881;DHT22;45751;51.380;10.326;2023-02-28T04:11:08;-0.10;76.80
59881;DHT22;45751;51.380;10.326;2023-02-28T04:13:42;-0.10;77.20
59881;DHT22;45751;51.380;10.326;2023-02-28T04:16:12;-0.10;77.40
59881;DHT22;45751;51.380;10.326;2023-02-28T04:18:58;-0.10;77.60
59881;DHT22;45751;51.380;10.326;2023-02-28T04:21:29;-0.10;77.50
59881;DHT22;45751;51.380;10.326;2023-02-28T04:23:57;-0.10;77.30
59881;DHT22;45751;51.380;10.326;2023-02-28T04:26:35;-0.10;77.20
59881;DHT22;45751;51.380;10.326;2023-02-28T04:29:05;-0.10;77.00
59881;DHT22;45751;51.380;10.326;2023-02-28T04:31:33;-0.10;76.80
59881;DHT22;45751;51.380;10.326;2023-02-28T04:34:00;-0.10;76.50
59881;DHT22;45751;51.380;10.326;2023-02-28T04:36:28;-0.10;76.50
59881;DHT22;45751;51.380;10.326;2023-02-28T04:38:55;-0.10;76.50
59881;DHT22;45751;51.380;10.326;2023-02-28T04:41:22;-0.10;76.40
59881;DHT22;45751;51.380;10.326;2023-02-28T04:43:51;-0.10;76.10
59881;DHT22;45751;51.380;10.326;2023-02-28T04:46:19;-0.10;76.10
59881;DHT22;45751;51.380;10.326;2023-02-28T04:48:46;-0.10;76.20
59881;DHT22;45751;51.380;10.326;2023-02-28T04:51:15;-0.10;76.20
59881;DHT22;45751;51.380;10.326;2023-02-28T04:53:43;-0.10;77.10
59881;DHT22;45751;51.380;10.326;2023-02-28T04:56:12;-0.10;77.20
59881;DHT22;45751;51.380;10.326;2023-02-28T04:58:39;-0.10;75.90
59881;DHT22;45751;51.380;10.326;2023-02-28T05:01:36;-0.10;76.10
59881;DHT22;45751;51.380;10.326;2023-02-28T05:04:04;-0.10;76.00
59881;DHT22;45751;51.380;10.326;2023-02-28T05:06:33;-0.10;76.20
59881;DHT22;45751;51.380;10.326;2023-02-28T05:09:00;-0.10;76.30
59881;DHT22;45751;51.380;10.326;2023-02-28T05:11:29;-0.10;76.40
59881;DHT22;45751;51.380;10.326;2023-02-28T05:14:02;-0.10;76.50
59881;DHT22;45751;51.380;10.326;2023-02-28T05:16:30;-0.10;76.50
59881;DHT22;45751;51.380;10.326;2023-02-28T05:18:57;-0.10;76.40
59881;DHT22;45751;51.380;10.326;2023-02-28T05:23:52;-0.10;77.50
59881;DHT22;45751;51.380;10.326;2023-02-28T05:26:20;-0.10;76.40
59881;DHT22;45751;51.380;10.326;2023-02-28T05:28:47;-0.10;76.50
59881;DHT22;45751;51.380;10.326;2023-02-28T05:31:13;-0.10;76.60
59881;DHT22;45751;51.380;10.326;2023-02-28T05:33:41;-0.20;76.60
59881;DHT22;45751;51.380;10.326;2023-02-28T05:36:08;-0.20;76.70
59881;DHT22;45751;51.380;10.326;2023-02-28T05:38:35;-0.20;76.90
59881;DHT22;45751;51.380;10.326;2023-02-28T05:41:06;-0.30;77.10
59881;DHT22;45751;51.380;10.326;2023-02-28T05:43:34;-0.30;77.20
59881;DHT22;45751;51.380;10.326;2023-02-28T05:46:09;-0.30;77.30
59881;DHT22;45751;51.380;10.326;2023-02-28T05:48:37;-0.30;77.50
59881;DHT22;45751;51.380;10.326;2023-02-28T05:51:05;-0.30;77.70
59881;DHT22;45751;51.380;10.326;2023-02-28T05:53:33;-0.30;77.70
59881;DHT22;45751;51.380;10.326;2023-02-28T05:56:00;-0.30;77.80
59881;DHT22;45751;51.380;10.326;2023-02-28T05:58:27;-0.30;77.80
59881;DHT22;45751;51.380;10.326;2023-02-28T06:00:58;-0.30;77.70
59881;DHT22;45751;51.380;10.326;2023-02-28T06:03:25;-0.30;77.60
59881;DHT22;45751;51.380;10.326;2023-02-28T06:05:53;-0.40;77.40
59881;DHT22;45751;51.380;10.326;2023-02-28T06:08:20;-0.40;77.30
59881;DHT22;45751;51.380;10.326;2023-02-28T06:10:47;-0.40;77.30
59881;DHT22;45751;51.380;10.326;2023-02-28T06:13:14;-0.40;77.30
59881;DHT22;45751;51.380;10.326;2023-02-28T06:15:41;-0.40;77.20
59881;DHT22;45751;51.380;10.326;2023-02-28T06:18:08;-0.40;77.20
59881;DHT22;45751;51.380;10.326;2023-02-28T06:20:35;-0.40;77.50
59881;DHT22;45751;51.380;10.326;2023-02-28T06:23:03;-0.40;77.60
59881;DHT22;45751;51.380;10.326;2023-02-28T06:25:30;-0.40;77.70
59881;DHT22;45751;51.380;10.326;2023-02-28T06:27:57;-0.50;77.70
59881;DHT22;45751;51.380;10.326;2023-02-28T06:30:23;-0.50;77.60
59881;DHT22;45751;51.380;10.326;2023-02-28T06:32:54;-0.50;77.70
59881;DHT22;45751;51.380;10.326;2023-02-28T06:35:22;-0.50;77.80
59881;DHT22;45751;51.380;10.326;2023-02-28T06:37:49;-0.50;78.00
59881;DHT22;45751;51.380;10.326;2023-02-28T06:40:16;-0.50;78.10
59881;DHT22;45751;51.380;10.326;2023-02-28T06:42:43;-0.50;78.10
59881;DHT22;45751;51.380;10.326;2023-02-28T06:45:11;-0.50;78.20
59881;DHT22;45751;51.380;10.326;2023-02-28T06:47:40;-0.50;78.20
59881;DHT22;45751;51.380;10.326;2023-02-28T06:50:09;-0.50;78.30
59881;DHT22;45751;51.380;10.326;2023-02-28T06:52:36;-0.50;78.30
59881;DHT22;45751;51.380;10.326;2023-02-28T06:55:07;-0.50;78.30
59881;DHT22;45751;51.380;10.326;2023-02-28T06:57:35;-0.50;78.40
59881;DHT22;45751;51.380;10.326;2023-02-28T07:00:09;-0.50;78.50
59881;DHT22;45751;51.380;10.326;2023-02-28T07:02:36;-0.50;78.60
59881;DHT22;45751;51.380;10.326;2023-02-28T07:05:05;-0.50;78.80
59881;DHT22;45751;51.380;10.326;2023-02-28T07:07:32;-0.50;78.80
59881;DHT22;45751;51.380;10.326;2023-02-28T07:09:59;-0.50;78.70
59881;DHT22;45751;51.380;10.326;2023-02-28T07:12:26;-0.50;78.90
59881;DHT22;45751;51.380;10.326;2023-02-28T07:14:53;-0.50;78.90
59881;DHT22;45751;51.380;10.326;2023-02-28T07:17:22;-0.50;78.90
59881;DHT22;45751;51.380;10.326;2023-02-28T07:19:49;-0.50;78.80
59881;DHT22;45751;51.380;10.326;2023-02-28T07:22:16;-0.50;78.90
59881;DHT22;45751;51.380;10.326;2023-02-28T07:24:43;-0.50;78.90
59881;DHT22;45751;51.380;10.326;2023-02-28T07:27:10;-0.50;78.80
59881;DHT22;45751;51.380;10.326;2023-02-28T07:29:37;-0.50;78.80
59881;DHT22;45751;51.380;10.326;2023-02-28T07:32:05;-0.50;78.90
59881;DHT22;45751;51.380;10.326;2023-02-28T07:34:31;-0.50;79.20
59881;DHT22;45751;51.380;10.326;2023-02-28T07:36:58;-0.50;79.20
59881;DHT22;45751;51.380;10.326;2023-02-28T07:39:25;-0.50;79.10
59881;DHT22;45751;51.380;10.326;2023-02-28T07:41:52;-0.50;79.10
59881;DHT22;45751;51.380;10.326;2023-02-28T07:44:24;-0.50;79.20
59881;DHT22;45751;51.380;10.326;2023-02-28T07:46:51;-0.50;79.20
59881;DHT22;45751;51.380;10.326;2023-02-28T07:49:19;-0.50;79.10
59881;DHT22;45751;51.380;10.326;2023-02-28T07:51:46;-0.50;78.90
59881;DHT22;45751;51.380;10.326;2023-02-28T07:54:12;-0.50;78.70
59881;DHT22;45751;51.380;10.326;2023-02-28T07:56:40;-0.40;78.50
59881;DHT22;45751;51.380;10.326;2023-02-28T07:59:06;-0.40;78.40
59881;DHT22;45751;51.380;10.326;2023-02-28T08:01:33;-0.40;78.20
59881;DHT22;45751;51.380;10.326;2023-02-28T08:04:00;-0.40;78.00
59881;DHT22;45751;51.380;10.326;2023-02-28T08:06:27;-0.40;77.90
59881;DHT22;45751;51.380;10.326;2023-02-28T08:08:54;-0.40;77.90
59881;DHT22;45751;51.380;10.326;2023-02-28T08:11:22;-0.40;77.70
59881;DHT22;45751;51.380;10.326;2023-02-28T08:13:49;-0.30;77.60
59881;DHT22;45751;51.380;10.326;2023-02-28T08:16:17;-0.40;77.40
59881;DHT22;45751;51.380;10.326;2023-02-28T08:18:51;-0.30;77.30
59881;DHT22;45751;51.380;10.326;2023-02-28T08:21:19;-0.30;77.20
59881;DHT22;45751;51.380;10.326;2023-02-28T08:23:50;-0.30;77.10
59881;DHT22;45751;51.380;10.326;2023-02-28T08:26:18;-0.30;76.80
59881;DHT22;45751;51.380;10.326;2023-02-28T08:28:46;-0.30;76.50
59881;DHT22;45751;51.380;10.326;2023-02-28T08:31:14;-0.30;76.40
59881;DHT22;45751;51.380;10.326;2023-02-28T08:33:42;-0.30;76.10
59881;DHT22;45751;51.380;10.326;2023-02-28T08:36:11;-0.20;76.30
59881;DHT22;45751;51.380;10.326;2023-02-28T08:38:38;-0.20;76.00
59881;DHT22;45751;51.380;10.326;2023-02-28T08:41:08;-0.20;75.90
59881;DHT22;45751;51.380;10.326;2023-02-28T08:43:36;-0.10;75.50
59881;DHT22;45751;51.380;10.326;2023-02-28T08:46:04;-0.10;74.10
59881;DHT22;45751;51.380;10.326;2023-02-28T08:48:33;-0.10;73.10
59881;DHT22;45751;51.380;10.326;2023-02-28T08:51:05;-0.10;72.30
59881;DHT22;45751;51.380;10.326;2023-02-28T08:53:38;0.00;71.60
59881;DHT22;45751;51.380;10.326;2023-02-28T08:56:16;0.00;70.90
59881;DHT22;45751;51.380;10.326;2023-02-28T08:58:44;0.00;70.30
59881;DHT22;45751;51.380;10.326;2023-02-28T09:01:13;0.10;69.70
59881;DHT22;45751;51.380;10.326;2023-02-28T09:03:41;0.10;69.60
59881;DHT22;45751;51.380;10.326;2023-02-28T09:06:09;0.10;69.00
59881;DHT22;45751;51.380;10.326;2023-02-28T09:08:36;0.20;68.10
59881;DHT22;45751;51.380;10.326;2023-02-28T09:11:04;0.20;68.10
59881;DHT22;45751;51.380;10.326;2023-02-28T09:13:31;0.20;68.10
59881;DHT22;45751;51.380;10.326;2023-02-28T09:16:00;0.20;67.80
59881;DHT22;45751;51.380;10.326;2023-02-28T09:18:27;0.30;67.70
59881;DHT22;45751;51.380;10.326;2023-02-28T09:20:54;0.30;67.50
59881;DHT22;45751;51.380;10.326;2023-02-28T09:23:21;0.30;67.50
59881;DHT22;45751;51.380;10.326;2023-02-28T09:25:51;0.30;67.50
59881;DHT22;45751;51.380;10.326;2023-02-28T09:28:19;0.40;67.60
59881;DHT22;45751;51.380;10.326;2023-02-28T09:30:48;0.40;67.50
59881;DHT22;45751;51.380;10.326;2023-02-28T09:33:17;0.40;68.00
59881;DHT22;45751;51.380;10.326;2023-02-28T09:35:45;0.50;68.20
59881;DHT22;45751;51.380;10.326;2023-02-28T09:38:12;0.50;68.00
59881;DHT22;45751;51.380;10.326;2023-02-28T09:40:51;0.60;67.10
59881;DHT22;45751;51.380;10.326;2023-02-28T09:43:22;0.60;66.60
59881;DHT22;45751;51.380;10.326;2023-02-28T09:45:54;0.70;66.60
59881;DHT22;45751;51.380;10.326;2023-02-28T09:48:32;0.70;66.70
59881;DHT22;45751;51.380;10.326;2023-02-28T09:53:42;0.80;66.70
59881;DHT22;45751;51.380;10.326;2023-02-28T09:56:27;0.90;66.20
59881;DHT22;45751;51.380;10.326;2023-02-28T10:06:48;1.10;65.10
59881;DHT22;45751;51.380;10.326;2023-02-28T10:09:21;1.10;65.20
59881;DHT22;45751;51.380;10.326;2023-02-28T10:11:57;1.20;65.20
59881;DHT22;45751;51.380;10.326;2023-02-28T10:14:28;1.20;64.60
59881;DHT22;45751;51.380;10.326;2023-02-28T10:16:59;1.20;65.60
59881;DHT22;45751;51.380;10.326;2023-02-28T10:19:34;1.30;65.70
59881;DHT22;45751;51.380;10.326;2023-02-28T10:22:19;1.30;64.40
59881;DHT22;45751;51.380;10.326;2023-02-28T10:24:49;1.40;64.20
59881;DHT22;45751;51.380;10.326;2023-02-28T10:27:20;1.40;64.40
59881;DHT22;45751;51.380;10.326;2023-02-28T10:29:53;1.50;64.70
59881;DHT22;45751;51.380;10.326;2023-02-28T10:32:23;1.50;64.50
59881;DHT22;45751;51.380;10.326;2023-02-28T10:34:57;1.60;64.50
59881;DHT22;45751;51.380;10.326;2023-02-28T10:37:26;1.60;64.40
59881;DHT22;45751;51.380;10.326;2023-02-28T10:39:53;1.60;64.00
59881;DHT22;45751;51.380;10.326;2023-02-28T10:42:28;1.60;63.50
59881;DHT22;45751;51.380;10.326;2023-02-28T10:45:13;1.60;63.50
59881;DHT22;45751;51.380;10.326;2023-02-28T10:47:53;1.60;63.30
59881;DHT22;45751;51.380;10.326;2023-02-28T10:50:42;1.60;63.20
59881;DHT22;45751;51.380;10.326;2023-02-28T10:56:01;1.50;63.40
59881;DHT22;45751;51.380;10.326;2023-02-28T10:58:31;1.60;63.70
59881;DHT22;45751;51.380;10.326;2023-02-28T11:00:59;1.60;64.00
59881;DHT22;45751;51.380;10.326;2023-02-28T11:03:32;1.60;64.00
59881;DHT22;45751;51.380;10.326;2023-02-28T11:06:12;1.60;63.80
59881;DHT22;45751;51.380;10.326;2023-02-28T11:08:49;1.60;64.10
59881;DHT22;45751;51.380;10.326;2023-02-28T11:11:17;1.60;64.10
59881;DHT22;45751;51.380;10.326;2023-02-28T11:13:46;1.60;64.20
59881;DHT22;45751;51.380;10.326;2023-02-28T11:16:15;1.70;64.30
59881;DHT22;45751;51.380;10.326;2023-02-28T11:18:55;1.70;64.30
59881;DHT22;45751;51.380;10.326;2023-02-28T11:21:34;1.80;64.40
59881;DHT22;45751;51.380;10.326;2023-02-28T11:26:48;1.80;63.70
59881;DHT22;45751;51.380;10.326;2023-02-28T11:29:22;1.90;63.40
59881;DHT22;45751;51.380;10.326;2023-02-28T11:34:32;1.90;63.40
59881;DHT22;45751;51.380;10.326;2023-02-28T11:36:59;2.00;63.40
59881;DHT22;45751;51.380;10.326;2023-02-28T11:39:27;2.10;63.60
59881;DHT22;45751;51.380;10.326;2023-02-28T11:44:55;2.10;63.60
59881;DHT22;45751;51.380;10.326;2023-02-28T11:47:43;2.20;63.80
59881;DHT22;45751;51.380;10.326;2023-02-28T11:53:01;2.30;63.60
59881;DHT22;45751;51.380;10.326;2023-02-28T11:55:32;2.40;63.30
59881;DHT22;45751;51.380;10.326;2023-02-28T12:01:53;2.50;63.50
59881;DHT22;45751;51.380;10.326;2023-02-28T12:04:02;2.60;62.70
59881;DHT22;45751;51.380;10.326;2023-02-28T12:06:38;2.60;62.40
59881;DHT22;45751;51.380;10.326;2023-02-28T12:23:46;3.10;61.70
59881;DHT22;45751;51.380;10.326;2023-02-28T12:26:51;3.10;60.90
59881;DHT22;45751;51.380;10.326;2023-02-28T12:29:30;3.20;60.90
59881;DHT22;45751;51.380;10.326;2023-02-28T12:32:09;3.30;60.80
59881;DHT22;45751;51.380;10.326;2023-02-28T12:34:55;3.30;60.50
59881;DHT22;45751;51.380;10.326;2023-02-28T12:37:27;3.40;60.20
59881;DHT22;45751;51.380;10.326;2023-02-28T12:40:01;3.40;60.30
59881;DHT22;45751;51.380;10.326;2023-02-28T12:42:38;3.50;60.10
59881;DHT22;45751;51.380;10.326;2023-02-28T12:45:11;3.60;59.90
59881;DHT22;45751;51.380;10.326;2023-02-28T12:47:42;3.70;59.70
59881;DHT22;45751;51.380;10.326;2023-02-28T12:50:11;3.80;60.30
59881;DHT22;45751;51.380;10.326;2023-02-28T12:52:55;3.90;60.30
59881;DHT22;45751;51.380;10.326;2023-02-28T13:04:20;4.30;58.70
59881;DHT22;45751;51.380;10.326;2023-02-28T13:07:20;4.50;58.80
59881;DHT22;45751;51.380;10.326;2023-02-28T13:09:55;4.70;58.70
59881;DHT22;45751;51.380;10.326;2023-02-28T13:12:23;4.80;58.00
59881;DHT22;45751;51.380;10.326;2023-02-28T13:15:07;4.90;57.30
59881;DHT22;45751;51.380;10.326;2023-02-28T13:17:40;5.00;57.40
59881;DHT22;45751;51.380;10.326;2023-02-28T13:20:22;5.10;56.70
59881;DHT22;45751;51.380;10.326;2023-02-28T13:22:52;5.20;56.70
59881;DHT22;45751;51.380;10.326;2023-02-28T13:27:53;5.40;55.90
59881;DHT22;45751;51.380;10.326;2023-02-28T13:33:30;5.70;55.20
59881;DHT22;45751;51.380;10.326;2023-02-28T13:41:45;6.00;54.30
59881;DHT22;45751;51.380;10.326;2023-02-28T13:44:15;6.10;54.00
59881;DHT22;45751;51.380;10.326;2023-02-28T13:49:29;6.30;53.00
59881;DHT22;45751;51.380;10.326;2023-02-28T14:00:23;6.70;51.80
59881;DHT22;45751;51.380;10.326;2023-02-28T14:05:40;6.90;51.80
59881;DHT22;45751;51.380;10.326;2023-02-28T14:08:21;7.00;51.80
59881;DHT22;45751;51.380;10.326;2023-02-28T14:11:02;7.10;51.40
59881;DHT22;45751;51.380;10.326;2023-02-28T14:13:44;7.20;51.10
59881;DHT22;45751;51.380;10.326;2023-02-28T14:16:14;7.20;50.90
59881;DHT22;45751;51.380;10.326;2023-02-28T14:18:49;7.40;50.90
59881;DHT22;45751;51.380;10.326;2023-02-28T14:21:24;7.40;50.90
59881;DHT22;45751;51.380;10.326;2023-02-28T14:26:37;7.60;50.60
59881;DHT22;45751;51.380;10.326;2023-02-28T14:34:43;7.80;49.10
59881;DHT22;45751;51.380;10.326;2023-02-28T14:37:26;7.80;49.10
59881;DHT22;45751;51.380;10.326;2023-02-28T14:39:55;7.90;48.80
59881;DHT22;45751;51.380;10.326;2023-02-28T14:44:57;8.00;48.00
59881;DHT22;45751;51.380;10.326;2023-02-28T14:47:31;8.00;47.80
59881;DHT22;45751;51.380;10.326;2023-02-28T14:49:59;8.00;48.00
59881;DHT22;45751;51.380;10.326;2023-02-28T14:52:28;8.00;48.10
59881;DHT22;45751;51.380;10.326;2023-02-28T14:55:03;8.00;48.00
59881;DHT22;45751;51.380;10.326;2023-02-28T14:57:33;8.00;48.00
59881;DHT22;45751;51.380;10.326;2023-02-28T15:02:45;8.20;47.70
59881;DHT22;45751;51.380;10.326;2023-02-28T15:07:39;8.30;47.80
59881;DHT22;45751;51.380;10.326;2023-02-28T15:10:20;8.30;47.20
59881;DHT22;45751;51.380;10.326;2023-02-28T15:13:00;8.30;46.70
59881;DHT22;45751;51.380;10.326;2023-02-28T15:21:29;8.30;46.60
59881;DHT22;45751;51.380;10.326;2023-02-28T15:26:42;8.30;46.60
59881;DHT22;45751;51.380;10.326;2023-02-28T15:29:16;8.30;46.90
59881;DHT22;45751;51.380;10.326;2023-02-28T15:31:49;8.30;46.40
59881;DHT22;45751;51.380;10.326;2023-02-28T15:34:36;8.20;46.40
59881;DHT22;45751;51.380;10.326;2023-02-28T15:37:45;8.20;46.60
59881;DHT22;45751;51.380;10.326;2023-02-28T15:40:17;8.20;46.90
59881;DHT22;45751;51.380;10.326;2023-02-28T15:45:41;8.20;46.60
59881;DHT22;45751;51.380;10.326;2023-02-28T15:48:14;8.20;46.50
59881;DHT22;45751;51.380;10.326;2023-02-28T15:50:41;8.20;46.90
59881;DHT22;45751;51.380;10.326;2023-02-28T15:53:22;8.20;46.80
59881;DHT22;45751;51.380;10.326;2023-02-28T15:55:55;8.20;46.60
59881;DHT22;45751;51.380;10.326;2023-02-28T15:58:24;8.10;46.50
59881;DHT22;45751;51.380;10.326;2023-02-28T16:01:15;8.10;46.60
59881;DHT22;45751;51.380;10.326;2023-02-28T16:03:46;8.10;46.40
59881;DHT22;45751;51.380;10.326;2023-02-28T16:06:38;8.10;46.50
59881;DHT22;45751;51.380;10.326;2023-02-28T16:09:09;8.00;46.40
59881;DHT22;45751;51.380;10.326;2023-02-28T16:11:41;8.00;46.60
59881;DHT22;45751;51.380;10.326;2023-02-28T16:14:17;8.00;46.40
59881;DHT22;45751;51.380;10.326;2023-02-28T16:16:48;7.90;46.30
59881;DHT22;45751;51.380;10.326;2023-02-28T16:19:16;7.90;46.10
59881;DHT22;45751;51.380;10.326;2023-02-28T16:21:43;7.90;46.40
59881;DHT22;45751;51.380;10.326;2023-02-28T16:24:10;7.80;46.60
59881;DHT22;45751;51.380;10.326;2023-02-28T16:26:40;7.70;46.90
59881;DHT22;45751;51.380;10.326;2023-02-28T16:29:09;7.70;48.20
59881;DHT22;45751;51.380;10.326;2023-02-28T16:31:40;7.60;47.10
59881;DHT22;45751;51.380;10.326;2023-02-28T16:34:07;7.50;47.20
59881;DHT22;45751;51.380;10.326;2023-02-28T16:36:34;7.40;47.30
59881;DHT22;45751;51.380;10.326;2023-02-28T16:39:01;7.30;47.40
59881;DHT22;45751;51.380;10.326;2023-02-28T16:41:29;7.20;47.60
59881;DHT22;45751;51.380;10.326;2023-02-28T16:43:58;7.10;47.80
59881;DHT22;45751;51.380;10.326;2023-02-28T16:46:36;7.00;48.10
59881;DHT22;45751;51.380;10.326;2023-02-28T16:49:03;6.80;48.70
59881;DHT22;45751;51.380;10.326;2023-02-28T16:51:30;6.80;48.80
59881;DHT22;45751;51.380;10.326;2023-02-28T16:54:00;6.60;48.90
59881;DHT22;45751;51.380;10.326;2023-02-28T16:56:27;6.50;49.30
59881;DHT22;45751;51.380;10.326;2023-02-28T16:58:57;6.40;49.40
59881;DHT22;45751;51.380;10.326;2023-02-28T17:01:25;6.30;49.50
59881;DHT22;45751;51.380;10.326;2023-02-28T17:03:54;6.10;49.80
59881;DHT22;45751;51.380;10.326;2023-02-28T17:06:29;6.00;50.00
59881;DHT22;45751;51.380;10.326;2023-02-28T17:08:58;5.90;50.30
59881;DHT22;45751;51.380;10.326;2023-02-28T17:11:26;5.70;50.70
59881;DHT22;45751;51.380;10.326;2023-02-28T17:13:53;5.50;50.90
59881;DHT22;45751;51.380;10.326;2023-02-28T17:16:27;5.40;51.40
59881;DHT22;45751;51.380;10.326;2023-02-28T17:19:01;5.30;51.50
59881;DHT22;45751;51.380;10.326;2023-02-28T17:21:29;5.20;51.80
59881;DHT22;45751;51.380;10.326;2023-02-28T17:23:57;5.10;52.10
59881;DHT22;45751;51.380;10.326;2023-02-28T17:26:24;4.90;52.20
59881;DHT22;45751;51.380;10.326;2023-02-28T17:28:55;4.80;52.40
59881;DHT22;45751;51.380;10.326;2023-02-28T17:31:24;4.70;52.60
59881;DHT22;45751;51.380;10.326;2023-02-28T17:33:51;4.60;53.00
59881;DHT22;45751;51.380;10.326;2023-02-28T17:36:24;4.50;53.20
59881;DHT22;45751;51.380;10.326;2023-02-28T17:38:53;4.40;53.60
59881;DHT22;45751;51.380;10.326;2023-02-28T17:41:22;4.40;53.90
59881;DHT22;45751;51.380;10.326;2023-02-28T17:43:49;4.30;54.00
59881;DHT22;45751;51.380;10.326;2023-02-28T17:46:20;4.20;54.10
59881;DHT22;45751;51.380;10.326;2023-02-28T17:48:48;4.20;54.50
59881;DHT22;45751;51.380;10.326;2023-02-28T17:51:16;4.10;54.70
59881;DHT22;45751;51.380;10.326;2023-02-28T17:53:43;4.00;55.10
59881;DHT22;45751;51.380;10.326;2023-02-28T17:56:19;4.00;55.40
59881;DHT22;45751;51.380;10.326;2023-02-28T17:58:47;3.90;55.60
59881;DHT22;45751;51.380;10.326;2023-02-28T18:01:14;3.80;55.70
59881;DHT22;45751;51.380;10.326;2023-02-28T18:03:41;3.70;55.90
59881;DHT22;45751;51.380;10.326;2023-02-28T18:09:21;3.70;56.50
59881;DHT22;45751;51.380;10.326;2023-02-28T18:11:50;3.60;56.60
59881;DHT22;45751;51.380;10.326;2023-02-28T18:14:18;3.50;56.70